createdAt,value
2019-06-10T00:01:08.236Z,85.34
2019-06-10T00:03:36.607Z,85.09
2019-06-10T00:06:07.056Z,86.02
2019-06-10T00:08:36.509Z,86.15
2019-06-10T00:11:07.445Z,86.22
2019-06-10T00:13:36.845Z,85.99
2019-06-10T00:16:07.601Z,85.82
2019-06-10T00:18:42.188Z,85.85
2019-06-10T00:21:08.398Z,85.56
2019-06-10T00:23:37.700Z,85.53
2019-06-10T00:26:08.056Z,85.95
2019-06-10T00:28:40.533Z,86.02
2019-06-10T00:31:11.294Z,86.21
2019-06-10T00:33:41.409Z,86.02
2019-06-10T00:36:13.642Z,86.63
2019-06-10T00:38:42.919Z,86.92
2019-06-10T00:41:14.111Z,85.83
2019-06-10T00:43:43.563Z,85.21
2019-06-10T00:46:13.433Z,85.59
2019-06-10T00:48:42.803Z,85.27
2019-06-10T00:51:13.225Z,85.34
2019-06-10T00:53:42.829Z,85.50
2019-06-10T00:56:14.206Z,85.83
2019-06-10T00:58:43.141Z,86.38
2019-06-10T01:01:14.596Z,86.06
2019-06-10T01:03:45.145Z,86.07
2019-06-10T01:06:15.520Z,86.23
2019-06-10T01:08:44.912Z,86.23
2019-06-10T01:11:21.298Z,86.21
2019-06-10T01:13:46.596Z,86.40
2019-06-10T01:16:16.513Z,86.67
2019-06-10T01:18:45.915Z,86.69
2019-06-10T01:21:15.626Z,86.58
2019-06-10T01:23:44.993Z,86.44
2019-06-10T01:26:16.419Z,86.78
2019-06-10T01:28:45.359Z,86.67
2019-06-10T01:31:19.131Z,86.60
2019-06-10T01:33:45.640Z,86.30
2019-06-10T01:36:16.538Z,86.57
2019-06-10T01:38:46.041Z,86.87
2019-06-10T01:41:16.629Z,86.49
2019-06-10T01:43:47.214Z,86.82
2019-06-10T01:46:17.517Z,86.62
2019-06-10T01:48:48.286Z,86.80
2019-06-10T01:51:21.461Z,86.73
2019-06-10T01:53:51.427Z,86.85
2019-06-10T01:56:21.568Z,86.37
2019-06-10T01:58:52.145Z,86.36
2019-06-10T02:01:23.573Z,86.84
2019-06-10T02:03:52.936Z,86.44
2019-06-10T02:06:25.658Z,86.59
2019-06-10T02:08:55.840Z,85.55
2019-06-10T02:11:25.193Z,85.49
2019-06-10T02:13:54.502Z,85.58
2019-06-10T02:16:24.194Z,85.08
2019-06-10T02:19:00.524Z,85.39
2019-06-10T02:21:25.899Z,85.73
2019-06-10T02:23:55.294Z,85.82
2019-06-10T02:26:24.593Z,85.85
2019-06-10T02:28:53.896Z,84.92
2019-06-10T02:31:30.199Z,84.80
2019-06-10T02:33:54.256Z,84.83
2019-06-10T02:36:31.069Z,84.30
2019-06-10T02:38:55.592Z,84.50
2019-06-10T02:41:31.834Z,83.71
2019-06-10T02:43:55.947Z,83.64
2019-06-10T02:46:31.039Z,84.00
2019-06-10T02:48:56.252Z,84.03
2019-06-10T02:51:30.786Z,83.33
2019-06-10T02:53:56.604Z,83.73
2019-06-10T02:56:30.877Z,83.52
2019-06-10T02:58:56.876Z,83.71
2019-06-10T03:01:30.581Z,83.87
2019-06-10T03:03:57.634Z,83.95
2019-06-10T03:06:35.134Z,83.94
2019-06-10T03:08:57.986Z,84.12
2019-06-10T03:11:31.924Z,84.05
2019-06-10T03:13:58.409Z,84.39
2019-06-10T03:16:29.335Z,84.18
2019-06-10T03:18:58.814Z,84.61
2019-06-10T03:21:28.558Z,84.19
2019-06-10T03:23:59.113Z,84.17
2019-06-10T03:26:28.395Z,84.16
2019-06-10T03:28:57.691Z,84.15
2019-06-10T03:31:33.471Z,84.19
2019-06-10T03:33:57.948Z,84.27
2019-06-10T03:36:27.375Z,84.55
2019-06-10T03:38:56.725Z,83.55
2019-06-10T03:41:26.813Z,84.02
2019-06-10T03:43:57.388Z,83.61
2019-06-10T03:46:27.289Z,83.54
2019-06-10T03:48:59.113Z,83.67
2019-06-10T03:51:28.689Z,83.42
2019-06-10T03:54:02.317Z,84.62
2019-06-10T03:56:32.295Z,84.41
2019-06-10T03:59:02.790Z,83.54
2019-06-10T04:01:33.311Z,83.01
2019-06-10T04:04:02.857Z,82.74
2019-06-10T04:06:33.576Z,83.02
2019-06-10T04:09:04.480Z,83.23
2019-06-10T04:11:35.518Z,83.67
2019-06-10T04:14:04.993Z,83.47
2019-06-10T04:16:34.306Z,84.24
2019-06-10T04:19:03.582Z,83.70
2019-06-10T04:21:32.888Z,83.98
2019-06-10T04:24:02.462Z,85.04
2019-06-10T04:26:32.702Z,85.08
2019-06-10T04:29:03.292Z,85.02
2019-06-10T04:31:33.105Z,84.68
2019-06-10T04:34:03.319Z,84.81
2019-06-10T04:36:33.310Z,84.08
2019-06-10T04:39:03.368Z,83.33
2019-06-10T04:41:33.645Z,82.48
2019-06-10T04:44:03.950Z,80.83
2019-06-10T04:46:33.422Z,80.14
2019-06-10T04:49:03.005Z,79.20
2019-06-10T04:51:32.839Z,78.21
2019-06-10T04:54:03.129Z,77.37
2019-06-10T04:56:33.589Z,75.69
2019-06-10T04:59:03.257Z,73.89
2019-06-10T05:01:33.790Z,71.54
2019-06-10T05:04:03.379Z,67.32
2019-06-10T05:06:32.947Z,62.79
2019-06-10T05:09:04.212Z,61.88
2019-06-10T05:11:33.394Z,62.84
2019-06-10T05:14:02.960Z,66.16
2019-06-10T05:16:35.927Z,68.86
2019-06-10T05:19:04.488Z,68.17
2019-06-10T05:21:33.958Z,66.64
2019-06-10T05:24:03.418Z,63.48
2019-06-10T05:26:33.623Z,64.84
2019-06-10T05:29:03.394Z,67.05
2019-06-10T05:31:35.098Z,68.27
2019-06-10T05:34:03.779Z,70.15
2019-06-10T05:36:34.619Z,70.97
2019-06-10T05:39:06.360Z,71.85
2019-06-10T05:41:35.809Z,72.30
2019-06-10T05:44:05.156Z,72.39
2019-06-10T05:46:35.117Z,74.22
2019-06-10T05:49:04.596Z,72.77
2019-06-10T05:51:35.400Z,72.78
2019-06-10T05:54:04.952Z,73.61
2019-06-10T05:56:35.689Z,74.88
2019-06-10T05:59:05.232Z,75.38
2019-06-10T06:01:38.044Z,74.35
2019-06-10T06:04:05.586Z,74.82
2019-06-10T06:06:35.496Z,73.82
2019-06-10T06:09:07.069Z,74.53
2019-06-10T06:11:37.671Z,74.09
2019-06-10T06:14:07.358Z,73.69
2019-06-10T06:16:38.158Z,74.32
2019-06-10T06:19:07.789Z,73.29
2019-06-10T06:21:42.933Z,73.91
2019-06-10T06:24:08.395Z,73.50
2019-06-10T06:26:39.399Z,72.39
2019-06-10T06:29:08.679Z,72.20
2019-06-10T06:31:38.121Z,71.91
2019-06-10T06:34:07.449Z,71.17
2019-06-10T06:36:38.276Z,70.32
2019-06-10T06:39:08.283Z,69.81
2019-06-10T06:41:38.955Z,70.09
2019-06-10T06:44:08.562Z,67.97
2019-06-10T06:46:39.617Z,68.21
2019-06-10T06:49:09.248Z,67.78
2019-06-10T06:51:51.810Z,67.74
2019-06-10T06:54:09.752Z,66.78
2019-06-10T06:56:40.482Z,66.25
2019-06-10T06:59:10.285Z,65.52
2019-06-10T07:01:41.478Z,65.36
2019-06-10T07:04:13.008Z,66.39
2019-06-10T07:06:43.401Z,65.66
2019-06-10T07:09:13.602Z,65.55
2019-06-10T07:11:45.147Z,66.74
2019-06-10T07:14:14.219Z,66.44
2019-06-10T07:16:46.136Z,67.13
2019-06-10T07:19:14.743Z,67.14
2019-06-10T07:22:02.372Z,67.41
2019-06-10T07:24:15.311Z,67.66
2019-06-10T07:26:50.895Z,66.01
2019-06-10T07:29:15.699Z,66.77
2019-06-10T07:31:50.159Z,65.31
2019-06-10T07:34:16.986Z,63.99
2019-06-10T07:36:46.153Z,64.17
2019-06-10T07:39:15.444Z,63.08
2019-06-10T07:41:47.688Z,65.20
2019-06-10T07:44:17.712Z,64.05
2019-06-10T07:46:47.012Z,64.09
2019-06-10T07:49:16.293Z,63.77
2019-06-10T07:51:46.441Z,61.92
2019-06-10T07:54:16.068Z,62.90
2019-06-10T07:56:50.235Z,63.27
2019-06-10T07:59:16.400Z,62.15
2019-06-10T08:01:51.509Z,62.24
2019-06-10T08:04:16.882Z,64.70
2019-06-10T08:06:49.637Z,63.71
2019-06-10T08:09:17.589Z,62.24
2019-06-10T08:11:48.661Z,61.68
2019-06-10T08:14:19.046Z,63.00
2019-06-10T08:16:48.689Z,63.25
2019-06-10T08:19:31.698Z,62.00
2019-06-10T08:21:49.613Z,61.64
2019-06-10T08:24:19.050Z,62.12
2019-06-10T08:26:48.351Z,59.85
2019-06-10T08:29:17.649Z,61.15
2019-06-10T08:31:49.570Z,60.85
2019-06-10T08:34:17.920Z,61.72
2019-06-10T08:36:50.580Z,59.72
2019-06-10T08:39:18.314Z,58.80
2019-06-10T08:41:49.198Z,58.86
2019-06-10T08:44:23.058Z,58.13
2019-06-10T08:46:52.442Z,59.63
2019-06-10T08:49:23.904Z,58.50
2019-06-10T08:51:54.216Z,57.78
2019-06-10T08:54:23.874Z,57.64
2019-06-10T08:56:54.153Z,57.48
2019-06-10T08:59:23.720Z,57.12
2019-06-10T09:01:56.838Z,56.66
2019-06-10T09:04:24.403Z,57.27
2019-06-10T09:06:53.974Z,57.89
2019-06-10T09:09:23.223Z,57.58
2019-06-10T09:11:54.645Z,56.72
2019-06-10T09:14:24.448Z,55.44
2019-06-10T09:16:54.464Z,56.48
2019-06-10T09:19:23.951Z,57.89
2019-06-10T09:21:56.227Z,56.04
2019-06-10T09:24:24.247Z,54.50
2019-06-10T09:26:54.943Z,54.07
2019-06-10T09:29:24.506Z,51.17
2019-06-10T09:31:55.877Z,52.72
2019-06-10T09:34:24.778Z,51.28
2019-06-10T09:36:56.907Z,51.86
2019-06-10T09:39:25.085Z,50.88
2019-06-10T09:42:02.262Z,51.17
2019-06-10T09:44:25.440Z,50.60
2019-06-10T09:46:59.426Z,50.13
2019-06-10T09:49:27.637Z,46.95
2019-06-10T09:51:57.730Z,45.56
2019-06-10T09:54:28.289Z,45.63
2019-06-10T09:56:58.038Z,44.60
2019-06-10T09:59:27.503Z,44.75
2019-06-10T10:01:58.893Z,39.57
2019-06-10T10:04:28.765Z,38.48
2019-06-10T10:06:58.090Z,41.64
2019-06-10T10:09:27.451Z,43.73
2019-06-10T10:11:56.744Z,44.96
2019-06-10T10:14:26.319Z,44.60
2019-06-10T10:17:00.230Z,45.32
2019-06-10T10:19:26.852Z,45.63
2019-06-10T10:21:58.416Z,46.22
2019-06-10T10:24:28.839Z,47.81
2019-06-10T10:27:01.809Z,44.71
2019-06-10T10:29:29.375Z,43.36
2019-06-10T10:31:58.649Z,42.94
2019-06-10T10:34:27.936Z,44.78
2019-06-10T10:36:57.487Z,46.00
2019-06-10T10:39:27.010Z,42.64
2019-06-10T10:41:57.304Z,40.30
2019-06-10T10:44:26.822Z,40.47
2019-06-10T10:46:56.137Z,37.22
2019-06-10T10:49:25.438Z,38.04
2019-06-10T10:51:54.731Z,36.75
2019-06-10T10:54:33.080Z,38.90
2019-06-10T10:56:58.895Z,38.87
2019-06-10T10:59:26.219Z,40.79
2019-06-10T11:01:55.507Z,43.29
2019-06-10T11:04:24.802Z,44.19
2019-06-10T11:06:56.822Z,46.01
2019-06-10T11:09:26.211Z,45.26
2019-06-10T11:11:57.432Z,46.71
2019-06-10T11:14:29.035Z,47.17
2019-06-10T11:16:59.011Z,49.17
2019-06-10T11:19:28.742Z,50.76
2019-06-10T11:21:58.045Z,50.57
2019-06-10T11:24:36.403Z,50.04
2019-06-10T11:26:58.587Z,50.37
2019-06-10T11:29:28.898Z,50.24
2019-06-10T11:31:58.926Z,51.87
2019-06-10T11:34:29.046Z,50.54
2019-06-10T11:36:58.474Z,51.75
2019-06-10T11:39:27.729Z,47.88
2019-06-10T11:41:58.057Z,45.89
2019-06-10T11:44:27.553Z,46.45
2019-06-10T11:46:58.142Z,46.30
2019-06-10T11:49:28.019Z,47.55
2019-06-10T11:51:59.495Z,48.89
2019-06-10T11:54:32.566Z,50.50
2019-06-10T11:57:00.141Z,51.03
2019-06-10T11:59:29.391Z,51.50
2019-06-10T12:02:01.730Z,52.71
2019-06-10T12:04:29.679Z,53.12
2019-06-10T12:06:59.128Z,55.18
2019-06-10T12:09:28.474Z,55.58
2019-06-10T12:11:59.962Z,53.06
2019-06-10T12:14:28.832Z,53.33
2019-06-10T12:17:24.727Z,49.68
2019-06-10T12:19:33.544Z,48.56
2019-06-10T12:22:06.905Z,49.77
2019-06-10T12:24:33.211Z,48.08
2019-06-10T12:27:05.075Z,47.05
2019-06-10T12:29:33.911Z,48.39
2019-06-10T12:32:07.115Z,47.97
2019-06-10T12:34:34.167Z,50.74
2019-06-10T12:37:10.631Z,52.18
2019-06-10T12:39:35.082Z,50.73
2019-06-10T12:42:06.447Z,51.71
2019-06-10T12:44:35.683Z,51.80
2019-06-10T12:47:07.590Z,51.47
2019-06-10T12:49:35.987Z,51.11
2019-06-10T12:52:07.560Z,51.39
2019-06-10T12:54:36.563Z,50.00
2019-06-10T12:57:06.954Z,48.91
2019-06-10T12:59:36.525Z,48.43
2019-06-10T13:02:19.101Z,45.89
2019-06-10T13:04:39.423Z,46.11
2019-06-10T13:07:09.396Z,47.28
2019-06-10T13:09:40.258Z,47.97
2019-06-10T13:12:12.222Z,46.73
2019-06-10T13:14:42.913Z,44.72
2019-06-10T13:17:13.008Z,47.08
2019-06-10T13:19:43.259Z,48.20
2019-06-10T13:22:12.763Z,47.40
2019-06-10T13:24:42.489Z,47.46
2019-06-10T13:27:11.909Z,47.92
2019-06-10T13:29:43.623Z,48.34
2019-06-10T13:32:12.212Z,47.05
2019-06-10T13:34:42.400Z,49.19
2019-06-10T13:37:15.863Z,49.90
2019-06-10T13:39:43.188Z,48.86
2019-06-10T13:42:13.617Z,50.80
2019-06-10T13:44:45.033Z,52.48
2019-06-10T13:47:16.215Z,52.12
2019-06-10T13:49:45.539Z,51.40
2019-06-10T13:52:16.781Z,53.11
2019-06-10T13:54:46.217Z,52.28
2019-06-10T13:57:15.839Z,50.78
2019-06-10T13:59:46.406Z,51.29
2019-06-10T14:02:16.040Z,51.36
2019-06-10T14:04:45.332Z,51.74
2019-06-10T14:07:17.454Z,49.75
2019-06-10T14:09:46.690Z,52.39
2019-06-10T14:12:17.365Z,50.05
2019-06-10T14:14:47.244Z,49.85
2019-06-10T14:17:19.390Z,49.41
2019-06-10T14:19:47.874Z,49.93
2019-06-10T14:22:18.762Z,50.83
2019-06-10T14:24:48.040Z,50.67
2019-06-10T14:27:21.344Z,51.45
2019-06-10T14:29:48.655Z,51.51
2019-06-10T14:32:17.961Z,51.39
2019-06-10T14:34:47.248Z,52.29
2019-06-10T14:37:29.677Z,53.06
2019-06-10T14:39:47.535Z,51.79
2019-06-10T14:42:16.851Z,52.76
2019-06-10T14:44:46.144Z,54.17
2019-06-10T14:47:16.755Z,54.49
2019-06-10T14:49:46.216Z,54.48
2019-06-10T14:52:16.866Z,55.04
2019-06-10T14:54:46.340Z,54.59
2019-06-10T14:57:16.810Z,55.98
2019-06-10T14:59:46.217Z,55.07
2019-06-10T15:02:16.119Z,54.70
2019-06-10T15:04:46.491Z,54.25
2019-06-10T15:07:15.797Z,56.31
2019-06-10T15:09:45.081Z,55.97
2019-06-10T15:12:16.222Z,57.45
2019-06-10T15:14:45.388Z,56.24
2019-06-10T15:17:14.778Z,56.19
2019-06-10T15:19:44.079Z,55.99
2019-06-10T15:22:15.108Z,58.12
2019-06-10T15:24:44.694Z,58.89
2019-06-10T15:27:23.110Z,60.31
2019-06-10T15:29:45.018Z,62.76
2019-06-10T15:32:26.817Z,64.03
2019-06-10T15:34:45.619Z,71.18
2019-06-10T15:37:17.158Z,76.08
2019-06-10T15:39:46.247Z,83.68
2019-06-10T15:42:16.156Z,86.66
2019-06-10T15:44:52.485Z,87.20
2019-06-10T15:47:19.449Z,89.17
2019-06-10T15:49:47.814Z,90.64
2019-06-10T15:52:19.987Z,87.46
2019-06-10T15:54:48.149Z,82.78
2019-06-10T15:57:31.994Z,75.58
2019-06-10T15:59:48.516Z,78.96
2019-06-10T16:02:19.578Z,79.02
2019-06-10T16:04:49.373Z,80.98
2019-06-10T16:07:19.229Z,82.28
2019-06-10T16:09:49.683Z,82.41
2019-06-10T16:12:19.973Z,81.75
2019-06-10T16:14:50.073Z,84.98
2019-06-10T16:17:19.386Z,78.45
2019-06-10T16:19:48.700Z,80.72
2019-06-10T16:22:17.970Z,80.57
2019-06-10T16:24:47.262Z,78.35
2019-06-10T16:27:17.910Z,81.64
2019-06-10T16:29:47.224Z,82.73
2019-06-10T16:32:16.519Z,83.61
2019-06-10T16:34:45.821Z,83.22
2019-06-10T16:37:15.166Z,81.92
2019-06-10T16:39:44.761Z,84.00
2019-06-10T16:42:15.473Z,83.15
2019-06-10T16:44:44.885Z,84.11
2019-06-10T16:47:14.277Z,84.43
2019-06-10T16:49:43.696Z,84.31
2019-06-10T16:52:12.978Z,84.55
2019-06-10T16:54:42.356Z,79.98
2019-06-10T16:57:12.319Z,82.70
2019-06-10T16:59:42.897Z,83.47
2019-06-10T17:02:12.791Z,84.75
2019-06-10T17:04:43.569Z,83.74
2019-06-10T17:07:12.999Z,83.82
2019-06-10T17:09:42.385Z,83.23
2019-06-10T17:12:12.661Z,82.08
2019-06-10T17:14:42.930Z,80.78
2019-06-10T17:17:12.795Z,80.62
2019-06-10T17:19:42.250Z,80.53
2019-06-10T17:22:12.613Z,80.19
2019-06-10T17:24:42.324Z,79.70
2019-06-10T17:27:13.135Z,81.11
2019-06-10T17:29:42.801Z,79.19
2019-06-10T17:32:13.299Z,80.45
2019-06-10T17:34:42.845Z,81.50
2019-06-10T17:37:12.575Z,82.44
2019-06-10T17:39:42.768Z,83.92
2019-06-10T17:42:12.464Z,82.38
2019-06-10T17:44:42.824Z,82.65
2019-06-10T17:47:13.260Z,83.03
2019-06-10T17:49:42.857Z,80.07
2019-06-10T17:52:13.080Z,81.97
2019-06-10T17:54:42.587Z,79.51
2019-06-10T17:57:12.803Z,79.98
2019-06-10T17:59:42.343Z,78.76
2019-06-10T18:02:12.363Z,78.87
2019-06-10T18:04:42.172Z,79.64
2019-06-10T18:07:13.060Z,79.02
2019-06-10T18:09:42.560Z,81.16
2019-06-10T18:12:13.001Z,82.39
2019-06-10T18:14:43.088Z,82.58
2019-06-10T18:17:12.820Z,80.32
2019-06-10T18:19:43.264Z,82.46
2019-06-10T18:22:12.778Z,81.64
2019-06-10T18:24:43.090Z,80.07
2019-06-10T18:27:13.213Z,81.19
2019-06-10T18:29:45.754Z,84.21
2019-06-10T18:32:16.615Z,85.43
2019-06-10T18:34:46.119Z,85.84
2019-06-10T18:37:15.429Z,86.15
2019-06-10T18:39:45.177Z,86.84
2019-06-10T18:42:14.571Z,87.84
2019-06-10T18:44:43.876Z,88.31
2019-06-10T18:47:13.527Z,88.96
2019-06-10T18:49:43.929Z,89.00
2019-06-10T18:52:14.347Z,86.35
2019-06-10T18:54:43.770Z,85.26
2019-06-10T18:57:13.236Z,85.88
2019-06-10T18:59:42.862Z,82.38
2019-06-10T19:02:12.343Z,82.93
2019-06-10T19:04:43.443Z,84.13
2019-06-10T19:07:13.063Z,86.65
2019-06-10T19:09:47.850Z,88.29
2019-06-10T19:12:13.682Z,90.32
2019-06-10T19:14:42.992Z,91.93
2019-06-10T19:17:12.480Z,93.30
2019-06-10T19:19:43.191Z,94.00
2019-06-10T19:22:13.282Z,94.12
2019-06-10T19:24:44.747Z,94.96
2019-06-10T19:27:13.890Z,94.14
2019-06-10T19:29:50.739Z,93.63
2019-06-10T19:32:14.380Z,94.69
2019-06-10T19:34:48.252Z,95.10
2019-06-10T19:37:14.680Z,94.71
2019-06-10T19:39:50.253Z,94.68
2019-06-10T19:42:14.991Z,94.75
2019-06-10T19:44:46.013Z,95.00
2019-06-10T19:47:16.524Z,95.42
2019-06-10T19:49:45.855Z,95.60
2019-06-10T19:52:15.398Z,96.33
2019-06-10T19:54:45.522Z,96.97
2019-06-10T19:57:16.196Z,97.35
2019-06-10T20:00:03.799Z,97.40
2019-06-10T20:02:16.509Z,97.83
2019-06-10T20:04:45.814Z,97.37
2019-06-10T20:07:15.192Z,97.50
2019-06-10T20:09:46.228Z,97.25
2019-06-10T20:12:15.525Z,97.03
2019-06-10T20:14:46.089Z,96.84
2019-06-10T20:17:16.894Z,97.17
2019-06-10T20:19:46.190Z,97.29
2019-06-10T20:22:15.501Z,97.46
2019-06-10T20:24:46.699Z,97.75
2019-06-10T20:27:15.899Z,97.82
2019-06-10T20:29:45.799Z,98.00
2019-06-10T20:32:15.238Z,98.13
2019-06-10T20:34:44.901Z,98.29
2019-06-10T20:37:14.254Z,98.15
2019-06-10T20:39:45.954Z,98.31
2019-06-10T20:42:14.632Z,98.55
2019-06-10T20:44:45.900Z,98.49
2019-06-10T20:47:14.971Z,98.38
2019-06-10T20:49:45.868Z,97.87
2019-06-10T20:52:15.427Z,97.82
2019-06-10T20:54:46.332Z,98.18
2019-06-10T20:57:15.709Z,98.48
2019-06-10T20:59:46.923Z,98.58
2019-06-10T21:02:17.358Z,98.60
2019-06-10T21:04:48.398Z,98.50
2019-06-10T21:07:18.721Z,98.55
2019-06-10T21:09:50.109Z,98.59
2019-06-10T21:12:22.096Z,98.76
2019-06-10T21:14:52.966Z,98.88
2019-06-10T21:17:22.751Z,99.18
2019-06-10T21:19:53.762Z,99.14
2019-06-10T21:22:23.722Z,98.78
2019-06-10T21:24:53.666Z,98.79
2019-06-10T21:27:23.972Z,98.70
2019-06-10T21:29:54.754Z,98.34
2019-06-10T21:32:26.241Z,98.04
2019-06-10T21:34:55.529Z,97.90
2019-06-10T21:37:24.823Z,97.86
2019-06-10T21:39:55.384Z,97.97
2019-06-10T21:42:25.006Z,97.99
2019-06-10T21:44:54.309Z,98.43
2019-06-10T21:47:23.639Z,98.68
2019-06-10T21:49:54.792Z,98.92
2019-06-10T21:52:24.252Z,98.90
2019-06-10T21:54:53.554Z,99.39
2019-06-10T21:57:22.888Z,98.84
2019-06-10T21:59:54.049Z,98.97
2019-06-10T22:02:23.273Z,98.87
2019-06-10T22:04:55.169Z,98.96
2019-06-10T22:07:23.602Z,98.99
2019-06-10T22:09:56.000Z,99.00
2019-06-10T22:12:24.306Z,99.09
2019-06-10T22:14:54.639Z,99.23
2019-06-10T22:17:24.281Z,98.99
2019-06-10T22:19:55.127Z,99.13
2019-06-10T22:22:24.581Z,99.18
2019-06-10T22:24:55.157Z,99.44
2019-06-10T22:27:26.111Z,99.36
2019-06-10T22:29:57.068Z,99.50
2019-06-10T22:32:26.594Z,99.45
2019-06-10T22:34:57.114Z,99.63
2019-06-10T22:37:26.504Z,99.60
2019-06-10T22:39:57.851Z,99.82
2019-06-10T22:42:27.007Z,99.70
2019-06-10T22:44:58.042Z,99.80
2019-06-10T22:47:27.627Z,99.89
2019-06-10T22:49:58.475Z,99.90
2019-06-10T22:52:28.018Z,100.00
2019-06-10T22:54:58.698Z,100.00
2019-06-10T22:57:28.276Z,100.00
2019-06-10T22:59:59.459Z,100.00
2019-06-10T23:02:28.913Z,100.00
2019-06-10T23:05:01.392Z,100.00
2019-06-10T23:07:29.379Z,100.00
2019-06-10T23:09:59.057Z,100.00
2019-06-10T23:12:28.525Z,100.00
2019-06-10T23:14:59.194Z,100.00
2019-06-10T23:17:28.638Z,100.00
2019-06-10T23:19:59.606Z,100.00
2019-06-10T23:22:29.140Z,100.00
2019-06-10T23:24:59.839Z,100.00
2019-06-10T23:27:32.844Z,100.00
2019-06-10T23:30:10.795Z,100.00
2019-06-10T23:32:33.295Z,100.00
2019-06-10T23:35:02.616Z,100.00
2019-06-10T23:37:32.381Z,100.00
2019-06-10T23:40:04.024Z,100.00
2019-06-10T23:42:32.758Z,100.00
2019-06-10T23:45:04.830Z,100.00
2019-06-10T23:47:33.237Z,100.00
2019-06-10T23:50:04.365Z,100.00
2019-06-10T23:52:33.764Z,100.00
2019-06-10T23:55:04.948Z,99.87
2019-06-10T23:57:34.300Z,99.72
